Time;durP1;ratioP1;P1;durP2;ratioP2;P2;SDS_P1;SDS_P2;PMS_P1;PMS_P2;Temp;Humidity;BMP_temperature;BMP_pressure;BME280_temperature;BME280_humidity;BME280_pressure;Samples;Min_cycle;Max_cycle;Signal;HPM_P1;HPM_P2
2023/05/02 00:00:44;;;;;;;38.70;27.15;;;12.90;99.90;;;;;;4175987;28;20052;-63
2023/05/02 00:02:45;;;;;;;44.25;28.52;;;12.80;99.90;;;;;;4178605;28;20086;-63
2023/05/02 00:04:46;;;;;;;41.00;27.13;;;12.70;99.90;;;;;;4178368;28;20044;-64
2023/05/02 00:06:46;;;;;;;39.50;25.30;;;12.70;99.90;;;;;;4176205;28;20423;-64
2023/05/02 00:08:48;;;;;;;38.50;24.60;;;12.70;99.90;;;;;;4178583;28;20033;-63
2023/05/02 00:10:49;;;;;;;47.17;29.35;;;12.70;99.90;;;;;;4177586;28;20025;-64
2023/05/02 00:12:49;;;;;;;41.65;27.13;;;12.70;99.90;;;;;;4178528;28;20029;-63
2023/05/02 00:14:50;;;;;;;43.33;28.42;;;12.70;99.90;;;;;;4178826;28;20037;-63
2023/05/02 00:16:50;;;;;;;41.00;27.33;;;12.60;99.90;;;;;;4176766;28;20114;-64
2023/05/02 00:18:51;;;;;;;39.33;27.33;;;12.60;99.90;;;;;;4178481;28;20025;-63
2023/05/02 00:20:52;;;;;;;40.85;27.52;;;12.60;99.90;;;;;;4177429;28;20033;-64
2023/05/02 00:22:54;;;;;;;38.22;26.25;;;12.70;99.90;;;;;;4177732;28;20098;-64
2023/05/02 00:24:57;;;;;;;45.88;29.58;;;12.70;99.90;;;;;;4178378;28;20032;-63
2023/05/02 00:26:58;;;;;;;38.97;26.00;;;12.70;99.90;;;;;;4176146;28;20033;-63
2023/05/02 00:29:00;;;;;;;48.28;30.25;;;12.60;99.90;;;;;;4176929;28;20090;-64
2023/05/02 00:31:01;;;;;;;46.63;30.38;;;12.70;99.90;;;;;;4176516;28;20468;-63
2023/05/02 00:33:01;;;;;;;48.25;30.90;;;12.60;99.90;;;;;;4178578;28;20086;-64
2023/05/02 00:35:02;;;;;;;52.75;33.78;;;12.50;99.90;;;;;;4177704;28;20053;-64
2023/05/02 00:37:02;;;;;;;52.00;31.33;;;12.50;99.90;;;;;;4177578;28;20041;-64
2023/05/02 00:39:04;;;;;;;49.58;30.63;;;12.40;99.90;;;;;;4178354;28;20039;-63
2023/05/02 00:41:05;;;;;;;53.15;33.42;;;12.40;99.90;;;;;;4177439;28;20025;-64
2023/05/02 00:43:06;;;;;;;57.58;35.70;;;12.40;99.90;;;;;;4177507;28;20561;-66
2023/05/02 00:45:07;;;;;;;53.47;32.95;;;12.40;99.90;;;;;;4176415;28;20094;-64
2023/05/02 00:47:07;;;;;;;47.97;29.30;;;12.40;99.90;;;;;;4174377;28;20033;-64
2023/05/02 00:49:08;;;;;;;47.20;29.27;;;12.40;99.90;;;;;;4175965;28;20037;-63
2023/05/02 00:51:11;;;;;;;53.17;32.75;;;12.40;99.90;;;;;;4175588;28;20033;-64
2023/05/02 00:53:11;;;;;;;54.83;34.17;;;12.40;99.90;;;;;;4177215;28;20127;-63
2023/05/02 00:55:12;;;;;;;54.50;33.75;;;12.40;99.90;;;;;;4176373;28;20120;-63
2023/05/02 00:57:12;;;;;;;52.83;32.78;;;12.50;99.90;;;;;;4176886;28;20523;-63
2023/05/02 00:59:13;;;;;;;56.63;33.38;;;12.40;99.90;;;;;;4177330;28;20468;-63
2023/05/02 01:01:37;;;;;;;50.10;30.02;;;12.40;99.90;;;;;;4173796;28;20049;-64
2023/05/02 01:03:49;;;;;;;45.95;29.70;;;12.50;99.90;;;;;;4171243;28;20025;-64
2023/05/02 01:06:07;;;;;;;46.20;28.95;;;12.50;99.90;;;;;;4174836;28;20040;-63
2023/05/02 01:08:36;;;;;;;44.05;28.08;;;12.50;99.90;;;;;;4176928;28;20039;-63
2023/05/02 01:11:27;;;;;;;40.65;25.98;;;12.50;99.90;;;;;;4173686;28;20052;-64
2023/05/02 01:13:33;;;;;;;41.47;25.50;;;12.60;99.90;;;;;;4170320;28;20128;-64
2023/05/02 01:15:37;;;;;;;41.42;26.40;;;12.70;99.90;;;;;;4175547;28;20044;-64
2023/05/02 01:17:40;;;;;;;41.58;26.30;;;12.70;99.90;;;;;;4175667;28;20041;-66
2023/05/02 01:19:46;;;;;;;40.55;24.58;;;12.70;99.90;;;;;;4176650;28;20111;-64
2023/05/02 01:21:48;;;;;;;35.92;22.83;;;12.70;99.90;;;;;;4175509;28;20037;-64
2023/05/02 01:24:18;;;;;;;43.53;26.52;;;12.70;99.90;;;;;;4176475;28;20029;-64
2023/05/02 01:26:51;;;;;;;43.55;26.95;;;12.80;99.90;;;;;;4175331;28;20051;-63
2023/05/02 01:29:00;;;;;;;37.05;23.48;;;12.70;99.90;;;;;;4175620;28;20033;-64
2023/05/02 01:31:04;;;;;;;37.13;22.63;;;12.80;99.90;;;;;;4175272;28;20029;-64
2023/05/02 01:33:06;;;;;;;34.80;22.05;;;12.80;99.90;;;;;;4175760;28;20029;-64
2023/05/02 01:35:09;;;;;;;38.50;23.42;;;12.90;99.90;;;;;;4176877;28;20518;-65
2023/05/02 01:37:11;;;;;;;40.20;26.05;;;12.90;99.90;;;;;;4176692;28;20523;-65
2023/05/02 01:39:17;;;;;;;39.40;24.65;;;13.00;99.90;;;;;;4177254;28;20033;-64
2023/05/02 01:41:19;;;;;;;37.72;24.83;;;13.00;99.90;;;;;;4176685;28;20037;-64
2023/05/02 01:43:20;;;;;;;39.28;24.38;;;13.00;99.90;;;;;;4177250;28;20063;-64
2023/05/02 01:45:22;;;;;;;41.78;24.67;;;13.10;99.90;;;;;;4175078;28;20029;-64
2023/05/02 01:47:24;;;;;;;47.70;28.50;;;13.10;99.90;;;;;;4176787;28;20044;-64
2023/05/02 01:49:26;;;;;;;45.05;28.33;;;13.00;99.90;;;;;;4177040;28;20280;-63
2023/05/02 01:51:30;;;;;;;41.47;24.58;;;13.00;99.90;;;;;;4176412;28;20115;-64
2023/05/02 01:53:34;;;;;;;38.92;24.58;;;13.00;99.90;;;;;;4176427;28;20028;-63
2023/05/02 01:55:37;;;;;;;42.88;27.10;;;13.00;99.90;;;;;;4174077;28;20029;-64
2023/05/02 01:57:39;;;;;;;41.28;25.65;;;13.00;99.90;;;;;;4177446;28;20052;-63
2023/05/02 01:59:42;;;;;;;43.13;25.20;;;12.90;99.90;;;;;;4176400;28;20033;-64
2023/05/02 02:01:43;;;;;;;;;;;13.00;99.90;;;;;;4175957;28;20033;-64
2023/05/02 02:03:45;;;;;;;43.13;26.00;;;13.00;99.90;;;;;;4176981;28;19908;-64
2023/05/02 02:05:48;;;;;;;35.60;23.42;;;12.90;99.90;;;;;;4176227;28;20033;-64
2023/05/02 02:07:49;;;;;;;38.92;23.58;;;12.90;99.90;;;;;;4176418;28;20029;-63
2023/05/02 02:09:50;;;;;;;45.70;27.55;;;12.90;99.90;;;;;;4176771;28;20051;-64
2023/05/02 02:12:09;;;;;;;36.30;23.27;;;12.90;99.90;;;;;;4176352;28;20571;-64
2023/05/02 02:14:20;;;;;;;40.40;24.83;;;12.90;99.90;;;;;;4175815;28;20101;-64
2023/05/02 02:16:27;;;;;;;41.60;25.98;;;12.80;99.90;;;;;;4174793;28;20496;-64
2023/05/02 02:18:31;;;;;;;42.83;26.08;;;12.90;99.90;;;;;;4176733;28;20029;-63
2023/05/02 02:20:33;;;;;;;34.55;21.13;;;12.80;99.90;;;;;;4175841;28;20025;-64
2023/05/02 02:22:37;;;;;;;35.13;21.30;;;12.80;99.90;;;;;;4175250;28;20036;-63
2023/05/02 02:24:39;;;;;;;34.95;21.15;;;12.80;99.90;;;;;;4176768;28;20044;-63
2023/05/02 02:26:40;;;;;;;28.75;19.52;;;12.80;99.90;;;;;;4176014;28;20040;-63
2023/05/02 02:28:41;;;;;;;29.15;18.67;;;12.90;99.90;;;;;;4175928;28;20037;-65
2023/05/02 02:30:42;;;;;;;29.35;18.90;;;12.90;99.90;;;;;;4173953;28;20025;-64
2023/05/02 02:32:42;;;;;;;31.85;20.10;;;12.90;99.90;;;;;;4180140;28;20075;-64
2023/05/02 02:34:43;;;;;;;34.85;19.83;;;12.90;99.90;;;;;;4180378;28;20032;-64
2023/05/02 02:37:14;;;;;;;30.05;19.58;;;12.90;99.90;;;;;;4178901;28;20028;-64
2023/05/02 02:39:27;;;;;;;29.15;17.67;;;12.90;99.90;;;;;;4179339;28;20102;-64
2023/05/02 02:41:35;;;;;;;24.30;15.88;;;12.80;99.90;;;;;;4179144;28;20029;-64
2023/05/02 02:43:43;;;;;;;27.13;16.17;;;12.90;99.90;;;;;;4179892;28;20037;-64
2023/05/02 02:46:01;;;;;;;23.25;14.20;;;12.80;99.90;;;;;;4175897;28;20037;-64
2023/05/02 02:48:26;;;;;;;27.33;15.27;;;12.80;99.90;;;;;;4175533;28;20037;-64
2023/05/02 02:50:35;;;;;;;22.50;13.30;;;12.80;99.90;;;;;;4178463;28;20435;-64
2023/05/02 02:52:49;;;;;;;22.55;12.77;;;12.90;99.90;;;;;;4178047;28;20032;-64
2023/05/02 02:55:05;;;;;;;26.38;14.18;;;12.90;99.90;;;;;;4176424;28;20090;-64
2023/05/02 02:57:13;;;;;;;19.35;12.45;;;12.90;99.90;;;;;;4177751;28;20112;-64
2023/05/02 02:59:28;;;;;;;20.27;12.75;;;12.90;99.90;;;;;;4179119;28;20151;-64
2023/05/02 03:01:31;;;;;;;23.30;13.52;;;12.90;99.90;;;;;;4177102;28;20052;-63
2023/05/02 03:03:33;;;;;;;20.23;12.48;;;12.80;99.90;;;;;;4173832;28;20048;-64
2023/05/02 03:05:34;;;;;;;20.05;12.38;;;12.90;99.90;;;;;;4173281;28;20033;-64
2023/05/02 03:07:35;;;;;;;23.45;14.23;;;12.90;99.90;;;;;;4174228;28;20080;-64
2023/05/02 03:09:46;;;;;;;20.02;11.15;;;12.80;99.90;;;;;;4179423;28;20162;-64
2023/05/02 03:11:47;;;;;;;21.17;12.30;;;12.80;99.90;;;;;;4176355;28;20365;-64
2023/05/02 03:13:48;;;;;;;21.02;12.68;;;12.80;99.90;;;;;;4171074;28;20056;-64
2023/05/02 03:15:52;;;;;;;20.15;12.63;;;12.90;99.90;;;;;;4172501;28;20036;-64
2023/05/02 03:17:53;;;;;;;18.90;11.93;;;12.90;99.90;;;;;;4175222;28;20513;-64
2023/05/02 03:19:54;;;;;;;19.17;11.93;;;13.00;99.90;;;;;;4175432;28;20029;-64
2023/05/02 03:21:55;;;;;;;18.88;12.25;;;13.00;99.90;;;;;;4173397;28;20034;-64
2023/05/02 03:24:02;;;;;;;20.10;13.05;;;13.00;99.90;;;;;;4175571;28;20525;-63
2023/05/02 03:26:02;;;;;;;20.85;12.68;;;13.10;99.90;;;;;;4174987;28;20025;-63
2023/05/02 03:28:03;;;;;;;20.45;12.48;;;13.10;99.90;;;;;;4174869;28;20076;-63
2023/05/02 03:30:04;;;;;;;22.05;12.73;;;13.10;99.90;;;;;;4176152;28;20087;-64
2023/05/02 03:32:05;;;;;;;19.40;11.55;;;13.10;99.90;;;;;;4172165;28;20036;-64
2023/05/02 03:34:06;;;;;;;18.23;11.80;;;13.20;99.90;;;;;;4176054;28;20124;-64
2023/05/02 03:36:06;;;;;;;19.83;13.10;;;13.20;99.90;;;;;;4176222;28;20057;-64
2023/05/02 03:38:07;;;;;;;18.63;11.95;;;13.20;99.90;;;;;;4172107;28;20041;-63
2023/05/02 03:40:08;;;;;;;21.42;12.88;;;13.20;99.90;;;;;;4174754;28;20044;-64
2023/05/02 03:42:09;;;;;;;22.58;13.73;;;13.30;99.90;;;;;;4173358;28;20041;-63
2023/05/02 03:44:09;;;;;;;24.58;14.07;;;13.30;99.90;;;;;;4174755;28;20454;-64
2023/05/02 03:46:10;;;;;;;21.80;13.10;;;13.30;99.90;;;;;;4173365;28;20065;-64
2023/05/02 03:48:11;;;;;;;23.35;13.95;;;13.40;99.90;;;;;;4173137;28;20075;-66
2023/05/02 03:50:11;;;;;;;22.40;14.07;;;13.40;99.90;;;;;;4170489;28;20507;-64
2023/05/02 03:52:12;;;;;;;24.15;14.48;;;13.40;99.90;;;;;;4177390;28;20163;-62
2023/05/02 03:54:13;;;;;;;25.05;15.50;;;13.30;99.90;;;;;;4174407;28;20040;-61
2023/05/02 03:56:18;;;;;;;27.55;15.00;;;13.40;99.90;;;;;;4168974;28;20119;-63
2023/05/02 03:58:19;;;;;;;25.20;15.32;;;13.30;99.90;;;;;;4173295;28;20036;-62
2023/05/02 04:00:20;;;;;;;27.15;15.52;;;13.30;99.90;;;;;;4170215;28;20037;-62
2023/05/02 04:02:21;;;;;;;26.77;16.40;;;13.20;99.90;;;;;;4169952;28;20090;-62
2023/05/02 04:04:21;;;;;;;25.45;14.20;;;13.20;99.90;;;;;;4173768;28;20044;-62
2023/05/02 04:06:22;;;;;;;24.40;15.50;;;13.20;99.90;;;;;;4175293;28;20555;-62
2023/05/02 04:08:23;;;;;;;27.15;16.67;;;13.10;99.90;;;;;;4172279;28;20025;-61
2023/05/02 04:10:23;;;;;;;27.35;16.92;;;13.10;99.90;;;;;;4173427;28;20037;-62
2023/05/02 04:12:24;;;;;;;26.73;16.88;;;13.00;99.90;;;;;;4177167;28;20094;-62
2023/05/02 04:14:24;;;;;;;29.10;17.17;;;13.00;99.90;;;;;;4177165;28;20064;-61
2023/05/02 04:16:25;;;;;;;28.67;17.95;;;12.90;99.90;;;;;;4174959;28;20033;-62
2023/05/02 04:18:25;;;;;;;29.85;17.83;;;12.90;99.90;;;;;;4172710;28;20079;-62
2023/05/02 04:20:26;;;;;;;28.20;18.38;;;12.80;99.90;;;;;;4171038;28;20889;-61
2023/05/02 04:22:27;;;;;;;33.50;18.90;;;12.80;99.90;;;;;;4173507;28;20068;-62
2023/05/02 04:24:27;;;;;;;28.65;16.00;;;12.70;99.90;;;;;;4173406;28;20037;-62
2023/05/02 04:26:28;;;;;;;22.95;15.45;;;12.70;99.90;;;;;;4170635;28;20053;-62
2023/05/02 04:28:28;;;;;;;32.40;18.80;;;12.80;99.90;;;;;;4171387;28;20472;-61
2023/05/02 04:30:30;;;;;;;27.80;17.10;;;12.80;99.90;;;;;;4167998;28;20532;-62
2023/05/02 04:32:30;;;;;;;29.80;18.42;;;12.70;99.90;;;;;;4174342;28;20060;-61
2023/05/02 04:34:31;;;;;;;29.95;17.90;;;12.60;99.90;;;;;;4173693;28;20684;-61
2023/05/02 04:36:33;;;;;;;29.73;18.33;;;12.60;99.90;;;;;;4170837;28;20033;-61
2023/05/02 04:38:34;;;;;;;29.67;18.50;;;12.70;99.90;;;;;;4174881;28;20409;-62
2023/05/02 04:40:35;;;;;;;30.65;18.05;;;12.60;99.90;;;;;;4172996;28;20048;-62
2023/05/02 04:42:35;;;;;;;31.05;18.45;;;12.60;99.90;;;;;;4173422;28;20683;-62
2023/05/02 04:44:36;;;;;;;31.90;17.88;;;12.70;99.90;;;;;;4172704;28;20041;-62
2023/05/02 04:46:37;;;;;;;33.20;19.85;;;12.70;99.90;;;;;;4172790;28;20031;-64
2023/05/02 04:48:40;;;;;;;31.40;17.65;;;12.70;99.90;;;;;;4172671;28;20041;-64
2023/05/02 04:50:43;;;;;;;29.30;17.35;;;12.70;99.90;;;;;;4174605;28;20442;-64
2023/05/02 04:52:44;;;;;;;;;;;12.60;99.90;;;;;;4172695;28;20026;-64
2023/05/02 04:54:44;;;;;;;21.17;12.52;;;12.50;99.90;;;;;;4172645;28;19919;-67
2023/05/02 04:56:45;;;;;;;14.20;9.23;;;12.40;99.90;;;;;;4172048;28;20029;-64
2023/05/02 04:58:46;;;;;;;16.50;7.68;;;12.30;99.90;;;;;;4175603;28;20044;-64
2023/05/02 05:00:46;;;;;;;15.68;7.63;;;12.20;99.90;;;;;;4172912;28;20060;-64
2023/05/02 05:02:47;;;;;;;10.73;6.00;;;12.20;99.90;;;;;;4176973;28;20047;-64
2023/05/02 05:04:48;;;;;;;10.65;4.85;;;12.20;99.90;;;;;;4177527;28;20053;-64
2023/05/02 05:06:48;;;;;;;11.07;5.53;;;12.10;99.90;;;;;;4174962;28;20084;-64
2023/05/02 05:08:49;;;;;;;13.98;5.07;;;12.10;99.90;;;;;;4177140;28;20025;-64
2023/05/02 05:10:50;;;;;;;9.80;4.35;;;12.00;99.90;;;;;;4176687;28;20394;-64
2023/05/02 05:12:52;;;;;;;8.88;3.80;;;12.00;99.90;;;;;;4177860;28;20037;-64
2023/05/02 05:14:52;;;;;;;6.50;3.60;;;12.00;99.90;;;;;;4177236;28;20041;-64
2023/05/02 05:16:53;;;;;;;6.65;2.80;;;12.10;99.90;;;;;;4176195;28;20108;-64
2023/05/02 05:18:53;;;;;;;6.85;3.30;;;12.10;99.90;;;;;;4175291;28;20061;-64
2023/05/02 05:20:54;;;;;;;8.60;3.10;;;12.10;99.90;;;;;;4175289;28;20037;-64
2023/05/02 05:22:55;;;;;;;7.68;3.05;;;12.20;99.90;;;;;;4173156;28;20025;-64
2023/05/02 05:24:56;;;;;;;7.28;2.97;;;12.20;99.90;;;;;;4173068;28;20514;-64
2023/05/02 05:26:56;;;;;;;8.13;2.78;;;12.20;99.90;;;;;;4174932;28;21325;-64
2023/05/02 05:28:57;;;;;;;8.07;2.70;;;12.30;99.90;;;;;;4175806;28;20404;-64
2023/05/02 05:31:04;;;;;;;5.78;3.22;;;12.30;99.90;;;;;;4169368;28;20111;-64
2023/05/02 05:33:05;;;;;;;9.40;2.50;;;12.30;99.90;;;;;;4173203;28;20041;-64
2023/05/02 05:35:06;;;;;;;7.80;3.00;;;12.30;99.90;;;;;;4173859;28;20046;-64
2023/05/02 05:37:07;;;;;;;7.78;3.00;;;12.30;99.90;;;;;;4174702;28;20041;-64
2023/05/02 05:39:09;;;;;;;5.60;2.33;;;12.20;99.90;;;;;;4170721;28;20115;-63
2023/05/02 05:41:10;;;;;;;8.77;2.70;;;12.20;99.90;;;;;;4168723;28;20052;-64
2023/05/02 05:43:10;;;;;;;6.15;2.45;;;12.20;99.90;;;;;;4170168;28;20032;-64
2023/05/02 05:45:11;;;;;;;7.63;3.13;;;12.30;99.90;;;;;;4170587;28;20029;-65
2023/05/02 05:47:12;;;;;;;10.20;2.20;;;12.10;99.90;;;;;;4173525;28;20167;-64
2023/05/02 05:49:15;;;;;;;5.78;2.33;;;12.20;99.90;;;;;;4172482;28;20531;-66
2023/05/02 05:51:15;;;;;;;6.85;2.45;;;12.10;99.90;;;;;;4169931;28;20045;-64
2023/05/02 05:53:16;;;;;;;7.55;2.53;;;12.20;99.90;;;;;;4173334;28;20587;-65
2023/05/02 05:55:16;;;;;;;8.25;2.40;;;12.20;99.90;;;;;;4170568;28;20098;-68
2023/05/02 05:57:17;;;;;;;5.07;2.58;;;12.20;99.90;;;;;;4173246;28;20120;-69
2023/05/02 05:59:18;;;;;;;5.80;2.22;;;12.20;99.90;;;;;;4173126;28;20182;-69
2023/05/02 06:01:18;;;;;;;6.18;2.20;;;12.30;99.90;;;;;;4169524;28;20037;-68
2023/05/02 06:03:19;;;;;;;6.13;2.50;;;12.30;99.90;;;;;;4173713;28;20102;-68
2023/05/02 06:05:19;;;;;;;7.43;2.60;;;12.30;99.90;;;;;;4172185;28;20032;-69
2023/05/02 06:07:20;;;;;;;5.28;2.17;;;12.30;99.90;;;;;;4173170;28;20064;-68
2023/05/02 06:09:20;;;;;;;4.57;2.10;;;12.30;99.90;;;;;;4170916;28;20064;-68
2023/05/02 06:11:21;;;;;;;6.97;2.13;;;12.40;99.90;;;;;;4171392;28;20593;-68
2023/05/02 06:13:21;;;;;;;5.05;2.05;;;12.40;99.90;;;;;;4171837;28;20057;-68
2023/05/02 06:15:22;;;;;;;5.35;2.22;;;12.40;99.90;;;;;;4172216;28;20033;-68
2023/05/02 06:17:23;;;;;;;4.10;1.98;;;12.40;99.90;;;;;;4172009;28;20045;-68
2023/05/02 06:19:23;;;;;;;6.60;2.13;;;12.50;99.90;;;;;;4173262;28;20040;-68
2023/05/02 06:21:25;;;;;;;3.47;1.95;;;12.60;99.90;;;;;;4171354;28;20040;-68
2023/05/02 06:23:26;;;;;;;7.57;2.13;;;12.60;99.90;;;;;;4172110;28;20487;-68
2023/05/02 06:25:26;;;;;;;5.25;2.70;;;12.60;99.90;;;;;;4171997;28;20029;-69
2023/05/02 06:27:27;;;;;;;9.10;2.90;;;12.60;99.90;;;;;;4169137;28;20048;-68
2023/05/02 06:29:27;;;;;;;8.55;2.88;;;12.70;99.90;;;;;;4166866;28;20082;-68
2023/05/02 06:31:28;;;;;;;8.25;2.53;;;12.70;99.90;;;;;;4170059;28;20515;-68
2023/05/02 06:33:29;;;;;;;10.55;3.05;;;12.70;99.90;;;;;;4172782;28;20064;-66
2023/05/02 06:35:30;;;;;;;8.85;2.60;;;12.70;99.90;;;;;;4168210;28;20441;-68
2023/05/02 06:37:34;;;;;;;6.85;2.50;;;12.60;99.90;;;;;;4173111;28;20028;-68
2023/05/02 06:39:35;;;;;;;4.88;2.15;;;12.70;99.90;;;;;;4165615;28;20117;-68
2023/05/02 06:41:36;;;;;;;11.50;2.50;;;12.70;99.90;;;;;;4170956;28;20037;-68
2023/05/02 06:43:36;;;;;;;7.50;2.53;;;12.70;99.90;;;;;;4166535;28;20859;-68
2023/05/02 06:45:38;;;;;;;8.40;3.08;;;12.60;99.90;;;;;;4168265;28;20090;-68
2023/05/02 06:47:38;;;;;;;7.60;2.28;;;12.50;99.90;;;;;;4167370;28;20071;-68
2023/05/02 06:49:39;;;;;;;13.65;3.03;;;12.40;99.90;;;;;;4165864;28;20558;-68
2023/05/02 06:51:40;;;;;;;6.70;2.00;;;12.30;99.90;;;;;;4167693;28;20403;-68
2023/05/02 06:53:40;;;;;;;5.93;2.05;;;12.30;99.90;;;;;;4167203;28;20258;-68
2023/05/02 06:55:41;;;;;;;11.50;2.55;;;12.30;99.90;;;;;;4168356;28;20499;-68
2023/05/02 06:57:42;;;;;;;5.65;1.85;;;12.30;99.90;;;;;;4168397;28;20250;-68
2023/05/02 06:59:43;;;;;;;7.47;2.08;;;12.40;99.90;;;;;;4167220;28;20523;-68
2023/05/02 07:01:43;;;;;;;5.40;1.80;;;12.30;99.90;;;;;;4166627;28;20040;-69
2023/05/02 07:03:45;;;;;;;4.88;1.27;;;12.30;99.90;;;;;;4167317;28;20041;-69
2023/05/02 07:05:46;;;;;;;8.15;1.77;;;12.30;99.90;;;;;;4165780;28;20601;-68
2023/05/02 07:07:46;;;;;;;4.38;1.80;;;12.30;99.90;;;;;;4168479;28;20037;-68
2023/05/02 07:09:47;;;;;;;4.50;1.55;;;12.30;99.90;;;;;;4165660;28;20045;-68
2023/05/02 07:11:48;;;;;;;6.78;2.15;;;12.20;99.90;;;;;;4168229;28;20030;-67
2023/05/02 07:13:49;;;;;;;9.30;2.17;;;12.20;99.90;;;;;;4171247;28;20068;-68
2023/05/02 07:15:49;;;;;;;4.75;1.85;;;12.10;99.90;;;;;;4170013;28;20041;-69
2023/05/02 07:17:50;;;;;;;7.00;2.25;;;12.20;99.90;;;;;;4172556;28;20053;-70
2023/05/02 07:19:52;;;;;;;6.20;2.13;;;12.10;99.90;;;;;;4171501;28;20049;-69
2023/05/02 07:21:52;;;;;;;5.77;1.90;;;12.10;99.90;;;;;;4169602;28;20036;-68
2023/05/02 07:23:56;;;;;;;3.20;1.50;;;12.20;99.90;;;;;;4173551;28;21385;-68
2023/05/02 07:25:56;;;;;;;4.47;1.80;;;12.20;99.90;;;;;;4170700;28;20492;-68
2023/05/02 07:27:57;;;;;;;7.85;2.03;;;12.30;99.90;;;;;;4172867;28;20029;-68
2023/05/02 07:29:58;;;;;;;4.82;2.00;;;12.30;99.90;;;;;;4170925;28;20036;-68
2023/05/02 07:31:58;;;;;;;6.03;2.22;;;12.30;99.90;;;;;;4169466;28;20053;-68
2023/05/02 07:33:59;;;;;;;13.43;2.42;;;12.30;99.90;;;;;;4170521;28;20103;-68
2023/05/02 07:36:00;;;;;;;7.57;2.22;;;12.30;99.90;;;;;;4172879;28;20047;-68
2023/05/02 07:38:01;;;;;;;2.83;1.30;;;12.30;99.90;;;;;;4172676;28;20068;-68
2023/05/02 07:40:03;;;;;;;4.40;2.15;;;12.40;99.90;;;;;;4171577;28;20025;-68
2023/05/02 07:42:03;;;;;;;8.25;2.30;;;12.40;99.90;;;;;;4172717;28;20057;-68
2023/05/02 07:44:04;;;;;;;5.82;2.20;;;12.40;99.90;;;;;;4173414;28;20376;-68
2023/05/02 07:46:05;;;;;;;10.48;2.75;;;12.40;99.90;;;;;;4171802;28;20468;-68
2023/05/02 07:48:05;;;;;;;9.27;2.67;;;12.30;99.90;;;;;;4171851;28;20043;-68
2023/05/02 07:50:06;;;;;;;12.18;2.63;;;12.30;99.90;;;;;;4173955;28;20033;-69
2023/05/02 07:52:07;;;;;;;9.25;2.88;;;12.30;99.90;;;;;;4171538;28;20029;-68
2023/05/02 07:54:34;;;;;;;7.10;2.30;;;12.30;99.90;;;;;;4173936;28;20823;-68
2023/05/02 07:56:35;;;;;;;8.68;2.60;;;12.30;99.90;;;;;;4170488;28;20613;-68
2023/05/02 07:58:36;;;;;;;7.47;2.50;;;12.30;99.90;;;;;;4171870;28;20033;-68
2023/05/02 08:00:36;;;;;;;10.80;2.60;;;12.30;99.90;;;;;;4171034;28;20116;-68
2023/05/02 08:02:37;;;;;;;5.70;2.40;;;12.20;99.90;;;;;;4172153;28;20060;-68
2023/05/02 08:04:38;;;;;;;7.82;2.35;;;12.20;99.90;;;;;;4168494;28;20036;-68
2023/05/02 08:06:38;;;;;;;11.77;2.63;;;12.20;99.90;;;;;;4169786;28;20052;-68
2023/05/02 08:08:39;;;;;;;9.27;2.50;;;12.20;99.90;;;;;;4171486;28;20094;-68
2023/05/02 08:10:39;;;;;;;7.25;2.22;;;12.20;99.90;;;;;;4172733;28;20069;-68
2023/05/02 08:12:41;;;;;;;10.00;2.60;;;12.20;99.90;;;;;;4174153;28;20064;-68
2023/05/02 08:14:41;;;;;;;5.95;2.20;;;12.20;99.90;;;;;;4172024;28;20385;-68
2023/05/02 08:16:42;;;;;;;8.05;2.30;;;12.30;99.90;;;;;;4168714;28;20055;-68
2023/05/02 08:18:43;;;;;;;7.93;2.10;;;12.30;99.90;;;;;;4173715;28;20056;-67
2023/05/02 08:20:43;;;;;;;10.07;2.25;;;12.30;99.90;;;;;;4168438;28;20091;-68
2023/05/02 08:22:44;;;;;;;6.07;1.95;;;12.30;99.90;;;;;;4171067;28;20048;-68
2023/05/02 08:24:44;;;;;;;7.35;2.22;;;12.30;99.90;;;;;;4172888;28;20037;-68
2023/05/02 08:26:45;;;;;;;7.63;2.08;;;12.30;99.90;;;;;;4168631;28;20140;-69
2023/05/02 08:28:46;;;;;;;9.02;2.83;;;12.30;99.90;;;;;;4171856;28;20041;-69
2023/05/02 08:30:47;;;;;;;9.43;2.92;;;12.40;99.90;;;;;;4167163;28;20037;-69
2023/05/02 08:32:48;;;;;;;7.03;2.72;;;12.40;99.90;;;;;;4171259;28;21202;-68
2023/05/02 08:34:48;;;;;;;7.18;2.58;;;12.40;99.90;;;;;;4171354;28;20041;-68
2023/05/02 08:36:49;;;;;;;4.95;2.20;;;12.50;99.90;;;;;;4171146;28;20037;-68
2023/05/02 08:38:50;;;;;;;8.05;3.42;;;12.50;99.90;;;;;;4171766;28;20547;-68
2023/05/02 08:40:50;;;;;;;7.20;2.58;;;12.50;99.90;;;;;;4169338;28;20037;-68
2023/05/02 08:42:51;;;;;;;8.05;2.95;;;12.60;99.90;;;;;;4172185;28;20040;-68
2023/05/02 08:44:52;;;;;;;8.13;3.13;;;12.70;99.90;;;;;;4170965;28;20516;-68
2023/05/02 08:46:54;;;;;;;6.28;2.28;;;12.70;99.90;;;;;;4170760;28;20037;-68
2023/05/02 08:48:57;;;;;;;10.85;2.92;;;12.80;99.90;;;;;;4171013;28;20128;-69
2023/05/02 08:50:58;;;;;;;7.05;2.90;;;12.70;99.90;;;;;;4168232;28;21804;-68
2023/05/02 08:52:59;;;;;;;6.65;2.50;;;12.80;99.90;;;;;;4168722;28;20075;-68
2023/05/02 08:55:00;;;;;;;10.02;3.35;;;12.90;99.90;;;;;;4174652;28;20396;-69
2023/05/02 08:57:03;;;;;;;10.77;3.08;;;12.90;99.90;;;;;;4171515;28;20392;-68
2023/05/02 08:59:05;;;;;;;7.22;2.60;;;13.00;99.90;;;;;;4171080;28;20033;-68
2023/05/02 09:01:16;;;;;;;9.88;3.03;;;13.00;99.90;;;;;;4172456;28;20066;-68
2023/05/02 09:03:30;;;;;;;6.60;2.67;;;13.10;99.90;;;;;;4173954;28;20025;-69
2023/05/02 09:05:38;;;;;;;6.07;2.42;;;13.20;99.90;;;;;;4173301;28;20090;-68
2023/05/02 09:07:45;;;;;;;8.23;2.53;;;13.30;99.90;;;;;;4171627;28;20056;-68
2023/05/02 09:09:45;;;;;;;8.95;2.38;;;13.30;99.90;;;;;;4171512;28;20056;-69
2023/05/02 09:11:47;;;;;;;6.13;2.05;;;13.40;99.90;;;;;;4171796;28;20500;-69
2023/05/02 09:13:50;;;;;;;7.28;2.30;;;13.50;99.90;;;;;;4170238;28;20033;-69
2023/05/02 09:15:58;;;;;;;7.93;2.58;;;13.50;99.90;;;;;;4170024;28;20076;-69
2023/05/02 09:17:59;;;;;;;6.30;2.20;;;13.60;99.90;;;;;;4172680;28;20037;-68
2023/05/02 09:20:00;;;;;;;4.70;1.90;;;13.70;99.90;;;;;;4171650;28;20491;-68
2023/05/02 09:22:01;;;;;;;7.65;2.65;;;13.70;99.90;;;;;;4171875;28;20037;-68
2023/05/02 09:24:12;;;;;;;6.15;2.28;;;13.80;99.90;;;;;;4172093;28;20036;-68
2023/05/02 09:26:28;;;;;;;8.45;2.63;;;13.90;99.90;;;;;;4169258;28;21480;-68
2023/05/02 09:28:40;;;;;;;9.23;2.58;;;14.10;99.90;;;;;;4171224;28;20932;-68
2023/05/02 09:30:41;;;;;;;7.60;2.65;;;14.10;99.90;;;;;;4168666;28;20365;-68
2023/05/02 09:32:46;;;;;;;7.00;2.55;;;14.00;99.90;;;;;;4155954;28;20039;-68
2023/05/02 09:35:04;;;;;;;5.85;2.45;;;14.10;99.90;;;;;;4163286;28;20061;-69
2023/05/02 09:37:05;;;;;;;4.07;2.05;;;14.10;99.90;;;;;;4166590;28;21075;-68
2023/05/02 09:39:12;;;;;;;10.23;3.10;;;14.10;99.90;;;;;;4167147;28;20044;-68
2023/05/02 09:41:13;;;;;;;7.25;2.58;;;14.10;99.90;;;;;;4167031;28;20105;-68
2023/05/02 09:43:15;;;;;;;8.13;3.03;;;14.00;99.90;;;;;;4167979;28;20501;-68
2023/05/02 09:45:25;;;;;;;;;;;14.00;99.90;;;;;;4163966;28;20037;-69
2023/05/02 09:47:26;;;;;;;9.15;2.40;;;13.80;99.90;;;;;;4161893;28;20117;-69
2023/05/02 09:49:44;;;;;;;8.07;2.22;;;13.70;99.90;;;;;;4166826;28;20771;-68
2023/05/02 09:51:46;;;;;;;6.40;2.03;;;13.60;99.90;;;;;;4165559;28;20045;-68
2023/05/02 09:53:47;;;;;;;7.20;2.17;;;13.60;99.90;;;;;;4167654;28;20051;-69
2023/05/02 09:55:58;;;;;;;6.28;2.08;;;13.50;99.90;;;;;;4164936;28;20056;-69
2023/05/02 09:57:59;;;;;;;7.80;2.58;;;13.50;99.90;;;;;;4165590;28;20064;-68
2023/05/02 10:00:00;;;;;;;4.75;2.13;;;13.50;99.90;;;;;;4166058;28;20447;-68
2023/05/02 10:02:08;;;;;;;7.80;2.22;;;13.50;99.90;;;;;;4163277;28;20029;-68
2023/05/02 10:04:15;;;;;;;8.88;2.70;;;13.50;99.90;;;;;;4167289;28;20059;-68
2023/05/02 10:06:16;;;;;;;7.78;2.55;;;13.50;99.90;;;;;;4166974;28;20040;-68
2023/05/02 10:08:18;;;;;;;7.63;2.30;;;13.50;99.90;;;;;;4163568;28;20638;-68
2023/05/02 10:10:19;;;;;;;5.25;1.85;;;13.50;99.90;;;;;;4166637;28;20962;-68
2023/05/02 10:12:23;;;;;;;4.38;1.50;;;13.40;99.90;;;;;;4167397;28;20044;-68
2023/05/02 10:14:25;;;;;;;7.47;2.40;;;13.40;99.90;;;;;;4168210;28;20033;-68
2023/05/02 10:16:29;;;;;;;4.87;1.83;;;13.50;99.90;;;;;;4162242;28;20037;-69
2023/05/02 10:18:57;;;;;;;5.72;1.73;;;13.50;99.90;;;;;;4168014;28;20295;-69
2023/05/02 10:21:03;;;;;;;5.40;1.90;;;13.50;99.90;;;;;;4162634;28;20140;-69
2023/05/02 10:23:05;;;;;;;3.00;1.52;;;13.50;99.90;;;;;;4166793;28;20546;-69
2023/05/02 10:25:05;;;;;;;7.22;2.00;;;13.60;99.90;;;;;;4168640;28;20037;-69
2023/05/02 10:27:07;;;;;;;4.93;2.17;;;13.70;99.90;;;;;;4166275;28;20052;-69
2023/05/02 10:29:07;;;;;;;6.97;2.80;;;13.70;99.90;;;;;;4166585;28;20037;-68
2023/05/02 10:31:10;;;;;;;4.85;2.00;;;13.70;99.90;;;;;;4163443;28;20043;-69
2023/05/02 10:33:12;;;;;;;;;;;13.70;99.90;;;;;;4167903;28;20061;-69